createdAt,value
2019-01-21T00:33:53.891Z,1.60
2019-01-21T00:38:51.714Z,1.59
2019-01-21T00:41:21.049Z,1.59
2019-01-21T00:43:50.155Z,1.61
2019-01-21T00:46:19.500Z,1.59
2019-01-21T00:48:49.844Z,1.59
2019-01-21T00:51:19.621Z,1.55
2019-01-21T00:53:48.709Z,1.46
2019-01-21T00:56:17.815Z,1.43
2019-01-21T00:58:46.893Z,1.43
2019-01-21T01:01:16.005Z,1.43
2019-01-21T01:03:45.095Z,1.43
2019-01-21T01:06:14.262Z,1.39
2019-01-21T01:08:43.431Z,1.39
2019-01-21T01:11:12.559Z,1.42
2019-01-21T01:13:41.656Z,1.38
2019-01-21T01:16:10.724Z,1.37
2019-01-21T01:18:39.843Z,1.37
2019-01-21T01:21:08.949Z,1.30
2019-01-21T01:23:38.176Z,1.29
2019-01-21T01:26:07.208Z,1.29
2019-01-21T01:28:36.482Z,1.26
2019-01-21T01:31:05.663Z,1.18
2019-01-21T01:33:34.727Z,1.18
2019-01-21T01:36:03.820Z,1.17
2019-01-21T01:38:32.848Z,1.18
2019-01-21T01:41:01.947Z,1.16
2019-01-21T01:43:30.968Z,1.12
2019-01-21T01:46:00.100Z,1.12
2019-01-21T01:48:29.182Z,1.12
2019-01-21T01:50:58.453Z,1.10
2019-01-21T01:53:27.547Z,1.09
2019-01-21T01:55:56.672Z,1.09
2019-01-21T01:58:25.757Z,1.09
2019-01-21T02:00:54.849Z,1.07
2019-01-21T02:03:24.102Z,1.07
2019-01-21T02:05:53.221Z,1.05
2019-01-21T02:08:22.233Z,1.02
2019-01-21T02:10:51.377Z,0.95
2019-01-21T02:13:20.491Z,0.93
2019-01-21T02:15:49.587Z,0.93
2019-01-21T02:18:18.682Z,0.92
2019-01-21T02:20:47.830Z,0.92
2019-01-21T02:23:18.077Z,0.92
2019-01-21T02:25:56.957Z,0.90
2019-01-21T02:28:37.640Z,0.84
2019-01-21T02:31:42.804Z,0.84
2019-01-21T02:34:15.898Z,0.81
2019-01-21T02:37:40.399Z,0.69
2019-01-21T02:40:46.886Z,0.62
2019-01-21T02:44:08.896Z,0.62
2019-01-21T02:47:04.167Z,0.57
2019-01-21T02:50:10.534Z,0.59
2019-01-21T02:53:17.217Z,0.58
2019-01-21T02:56:13.388Z,0.51
2019-01-21T02:59:24.614Z,0.44
2019-01-21T03:02:24.861Z,0.47
2019-01-21T03:05:35.479Z,0.47
2019-01-21T03:08:41.593Z,0.49
2019-01-21T03:11:34.575Z,0.49
2019-01-21T03:14:15.651Z,0.45
2019-01-21T03:17:10.563Z,0.48
2019-01-21T03:20:13.617Z,0.50
2019-01-21T03:23:05.141Z,0.51
2019-01-21T03:25:57.352Z,0.51
2019-01-21T03:29:25.637Z,0.48
2019-01-21T03:32:35.802Z,0.43
2019-01-21T03:35:30.785Z,0.40
2019-01-21T03:38:27.224Z,0.23
2019-01-21T03:41:33.564Z,0.26
2019-01-21T03:44:39.393Z,0.25
2019-01-21T03:47:32.712Z,0.23
2019-01-21T03:50:36.581Z,0.25
2019-01-21T03:53:52.684Z,0.26
2019-01-21T03:56:30.971Z,0.25
2019-01-21T03:59:43.667Z,0.27
2019-01-21T04:02:44.188Z,0.27
2019-01-21T04:05:51.651Z,0.27
2019-01-21T04:08:52.451Z,0.23
2019-01-21T04:11:44.178Z,0.21
2019-01-21T04:15:02.445Z,0.18
2019-01-21T04:18:06.757Z,0.17
2019-01-21T04:20:46.895Z,0.08
2019-01-21T04:23:38.627Z,0.12
2019-01-21T04:26:52.317Z,0.15
2019-01-21T04:29:44.170Z,0.09
2019-01-21T04:32:31.214Z,0.08
2019-01-21T04:35:47.543Z,0.10
2019-01-21T04:38:57.573Z,0.08
2019-01-21T04:42:00.422Z,0.05
2019-01-21T04:45:06.690Z,0.01
2019-01-21T04:48:10.023Z,-0.04
2019-01-21T04:51:16.706Z,-0.05
2019-01-21T04:54:19.228Z,-0.06
2019-01-21T04:57:21.402Z,-0.11
2019-01-21T05:00:30.554Z,-0.08
2019-01-21T05:03:29.351Z,-0.06
2019-01-21T05:06:31.583Z,-0.07
2019-01-21T05:09:27.750Z,-0.17
2019-01-21T05:12:33.909Z,-0.20
2019-01-21T05:15:36.658Z,-0.18
2019-01-21T05:18:45.102Z,-0.19
2019-01-21T05:22:01.389Z,-0.17
2019-01-21T05:24:53.569Z,-0.17
2019-01-21T05:28:13.133Z,-0.17
2019-01-21T05:31:26.219Z,-0.20
2019-01-21T05:34:51.594Z,-0.23
2019-01-21T05:37:52.844Z,-0.23
2019-01-21T05:40:47.010Z,-0.22
2019-01-21T05:44:15.433Z,-0.19
2019-01-21T05:47:15.790Z,-0.21
2019-01-21T05:50:13.568Z,-0.22
2019-01-21T05:53:48.001Z,-0.21
2019-01-21T05:57:02.718Z,-0.20
2019-01-21T05:59:58.635Z,-0.21
2019-01-21T06:03:26.745Z,-0.22
2019-01-21T06:06:40.923Z,-0.21
2019-01-21T06:09:54.151Z,-0.20
2019-01-21T06:12:36.707Z,-0.20
2019-01-21T06:15:47.116Z,-0.20
2019-01-21T06:18:44.797Z,-0.21
2019-01-21T06:22:10.073Z,-0.20
2019-01-21T06:25:17.100Z,-0.19
2019-01-21T06:28:26.120Z,-0.21
2019-01-21T06:31:31.709Z,-0.23
2019-01-21T06:34:36.581Z,-0.21
2019-01-21T06:37:34.288Z,-0.19
2019-01-21T06:40:59.461Z,-0.22
2019-01-21T06:43:56.544Z,-0.27
2019-01-21T06:47:15.395Z,-0.27
2019-01-21T06:50:27.377Z,-0.27
2019-01-21T06:53:30.167Z,-0.30
2019-01-21T06:56:55.423Z,-0.40
2019-01-21T07:00:02.230Z,-0.43
2019-01-21T07:03:27.513Z,-0.40
2019-01-21T07:06:31.426Z,-0.39
2019-01-21T07:09:45.065Z,-0.39
2019-01-21T07:12:39.188Z,-0.37
2019-01-21T07:15:38.409Z,-0.36
2019-01-21T07:18:57.716Z,-0.38
2019-01-21T07:22:12.563Z,-0.40
2019-01-21T07:25:01.357Z,-0.34
2019-01-21T07:27:57.915Z,-0.34
2019-01-21T07:30:59.777Z,-0.31
2019-01-21T07:33:54.732Z,-0.26
2019-01-21T07:37:00.663Z,-0.22
2019-01-21T07:39:57.548Z,-0.18
2019-01-21T07:43:06.835Z,-0.22
2019-01-21T07:46:04.522Z,-0.20
2019-01-21T07:49:17.623Z,-0.26
2019-01-21T07:52:22.935Z,-0.20
2019-01-21T07:55:10.883Z,-0.11
2019-01-21T07:58:24.248Z,-0.05
2019-01-21T08:01:39.288Z,0.01
2019-01-21T08:04:45.617Z,0.07
2019-01-21T08:07:50.746Z,0.11
2019-01-21T08:10:53.561Z,0.16
2019-01-21T08:14:12.708Z,0.10
2019-01-21T08:17:07.069Z,0.19
2019-01-21T08:20:23.237Z,1.07
2019-01-21T08:23:30.824Z,2.38
2019-01-21T08:26:38.229Z,3.87
2019-01-21T08:29:33.875Z,6.31
2019-01-21T08:32:20.951Z,6.31
2019-01-21T08:35:31.082Z,7.30
2019-01-21T08:38:40.132Z,8.20
2019-01-21T08:42:23.618Z,9.14
2019-01-21T08:45:29.601Z,9.93
2019-01-21T08:48:32.350Z,10.83
2019-01-21T08:51:54.661Z,11.34
2019-01-21T08:54:31.975Z,11.86
2019-01-21T08:57:46.112Z,12.49
2019-01-21T09:00:55.872Z,13.04
2019-01-21T09:04:00.635Z,13.76
2019-01-21T09:06:37.580Z,14.35
2019-01-21T09:09:33.167Z,15.00
2019-01-21T09:12:50.126Z,15.47
2019-01-21T09:16:15.178Z,15.85
2019-01-21T09:19:16.160Z,16.13
2019-01-21T09:22:07.906Z,16.74
2019-01-21T09:24:55.746Z,17.24
2019-01-21T09:27:47.644Z,17.52
2019-01-21T09:30:53.684Z,18.03
2019-01-21T09:34:12.905Z,18.56
2019-01-21T09:37:44.552Z,19.02
2019-01-21T09:40:54.110Z,19.61
2019-01-21T09:43:48.491Z,20.10
2019-01-21T09:46:50.711Z,20.59
2019-01-21T09:49:18.273Z,21.08
2019-01-21T09:52:11.626Z,21.63
2019-01-21T09:54:41.554Z,22.07
2019-01-21T09:57:17.328Z,22.63
2019-01-21T09:59:55.007Z,23.06
2019-01-21T10:02:42.864Z,23.48
2019-01-21T10:05:13.880Z,23.70
2019-01-21T10:08:01.375Z,24.12
2019-01-21T10:11:13.494Z,24.57
2019-01-21T10:14:26.771Z,24.89
2019-01-21T10:17:21.057Z,25.28
2019-01-21T10:20:40.323Z,25.73
2019-01-21T10:24:04.919Z,26.05
2019-01-21T10:27:16.853Z,26.45
2019-01-21T10:30:16.971Z,26.99
2019-01-21T10:33:29.946Z,27.31
2019-01-21T10:36:49.037Z,27.74
2019-01-21T10:39:35.729Z,28.24
2019-01-21T10:43:13.341Z,28.62
2019-01-21T10:46:12.629Z,29.00
2019-01-21T10:48:51.250Z,29.43
2019-01-21T10:52:07.550Z,29.84
2019-01-21T10:55:05.844Z,30.07
2019-01-21T10:57:53.418Z,30.43
2019-01-21T11:01:17.402Z,30.64
2019-01-21T11:04:10.854Z,30.97
2019-01-21T11:07:11.951Z,31.20
2019-01-21T11:10:00.962Z,31.58
2019-01-21T11:12:57.003Z,31.89
2019-01-21T11:15:37.503Z,32.11
2019-01-21T11:18:24.022Z,32.37
2019-01-21T11:21:18.409Z,32.51
2019-01-21T11:24:22.094Z,32.62
2019-01-21T11:27:23.260Z,32.68
2019-01-21T11:30:26.697Z,32.74
2019-01-21T11:33:48.559Z,32.89
2019-01-21T11:37:17.222Z,33.07
2019-01-21T11:40:38.311Z,33.06
2019-01-21T11:43:33.573Z,33.29
2019-01-21T11:46:39.779Z,33.42
2019-01-21T11:50:02.331Z,33.84
2019-01-21T11:52:53.782Z,34.28
2019-01-21T11:55:46.573Z,34.46
2019-01-21T11:58:55.909Z,34.69
2019-01-21T12:02:06.258Z,34.99
2019-01-21T12:04:56.360Z,35.23
2019-01-21T12:07:49.764Z,35.48
2019-01-21T12:10:46.370Z,35.50
2019-01-21T12:13:56.527Z,35.81
2019-01-21T12:17:18.531Z,36.39
2019-01-21T12:20:17.023Z,36.86
2019-01-21T12:23:26.364Z,37.20
2019-01-21T12:26:17.859Z,37.45
2019-01-21T12:29:23.832Z,37.70
2019-01-21T12:32:39.693Z,37.93
2019-01-21T12:35:45.979Z,38.06
2019-01-21T12:38:40.923Z,38.10
2019-01-21T12:41:35.311Z,37.96
2019-01-21T13:18:38.970Z,22.80
2019-01-21T13:21:49.746Z,21.07
2019-01-21T13:25:02.572Z,19.68
2019-01-21T13:28:13.076Z,18.38
2019-01-21T13:31:24.215Z,17.36
2019-01-21T13:34:40.740Z,16.43
2019-01-21T13:37:48.691Z,15.65
2019-01-21T13:41:11.550Z,15.03
2019-01-21T14:00:38.828Z,12.85
2019-01-21T14:10:42.625Z,12.18
2019-01-21T14:13:38.778Z,12.07
2019-01-21T14:17:12.310Z,11.83
2019-01-21T14:21:01.159Z,11.70
2019-01-21T14:25:14.710Z,11.55
2019-01-21T14:28:16.409Z,11.32
2019-01-21T14:31:25.065Z,11.07
2019-01-21T14:34:09.783Z,10.89
2019-01-21T14:37:12.944Z,10.79
2019-01-21T14:40:36.012Z,10.61
2019-01-21T14:47:56.565Z,10.45
2019-01-21T14:56:01.554Z,10.22
2019-01-21T14:59:43.677Z,10.06
2019-01-21T15:02:36.294Z,9.90
2019-01-21T15:05:45.048Z,9.80
2019-01-21T15:08:29.230Z,9.74
2019-01-21T15:11:21.231Z,9.62
2019-01-21T15:14:09.725Z,9.53
2019-01-21T15:17:04.555Z,9.48
2019-01-21T15:19:46.122Z,9.41
2019-01-21T15:22:41.681Z,9.33
2019-01-21T15:25:56.779Z,7.71
2019-01-21T15:28:50.476Z,6.10
2019-01-21T15:31:50.173Z,8.94
2019-01-21T15:35:16.764Z,8.77
2019-01-21T15:38:19.601Z,8.67
2019-01-21T15:41:19.685Z,8.53
2019-01-21T15:44:16.020Z,8.39
2019-01-21T15:47:23.396Z,7.27
2019-01-21T15:50:41.387Z,8.18
2019-01-21T15:53:22.924Z,8.11
2019-01-21T15:56:20.006Z,8.00
2019-01-21T15:59:29.513Z,7.88
2019-01-21T16:02:11.827Z,7.76
2019-01-21T16:05:05.651Z,7.61
2019-01-21T16:07:57.732Z,7.55
2019-01-21T16:10:57.981Z,7.48
2019-01-21T16:13:45.296Z,7.34
2019-01-21T16:16:31.632Z,7.26
2019-01-21T16:19:07.600Z,7.19
2019-01-21T16:22:19.751Z,7.11
2019-01-21T16:25:23.909Z,7.05
2019-01-21T16:28:36.332Z,6.96
2019-01-21T16:35:02.285Z,6.84
2019-01-21T16:38:23.912Z,6.80
2019-01-21T16:41:41.837Z,6.75
2019-01-21T16:45:01.029Z,6.67
2019-01-21T16:48:15.425Z,6.60
2019-01-21T16:50:44.724Z,6.57
2019-01-21T16:53:16.529Z,6.49
2019-01-21T16:55:46.543Z,5.03
2019-01-21T16:58:17.446Z,6.33
2019-01-21T17:00:53.571Z,6.25
2019-01-21T17:03:22.784Z,6.24
2019-01-21T17:05:54.725Z,6.18
2019-01-21T17:08:26.220Z,6.13
2019-01-21T17:10:56.458Z,6.08
2019-01-21T17:13:28.358Z,6.04
2019-01-21T17:15:57.485Z,6.03
2019-01-21T17:18:26.870Z,5.98
2019-01-21T17:21:00.530Z,5.94
2019-01-21T17:23:29.689Z,5.90
2019-01-21T17:26:01.314Z,5.91
2019-01-21T17:28:37.809Z,5.87
2019-01-21T17:31:08.227Z,5.84
2019-01-21T17:33:59.799Z,5.83
2019-01-21T17:36:38.093Z,5.78
2019-01-21T17:39:09.601Z,5.75
2019-01-21T17:42:22.953Z,5.69
2019-01-21T17:44:52.792Z,5.64
2019-01-21T17:47:41.938Z,2.68
2019-01-21T17:50:12.534Z,5.48
2019-01-21T17:52:51.712Z,5.44
2019-01-21T17:55:22.575Z,5.42
2019-01-21T17:57:53.447Z,5.39
2019-01-21T18:00:24.002Z,5.36
2019-01-21T18:02:53.436Z,5.34
2019-01-21T18:05:22.801Z,5.30
2019-01-21T18:08:06.043Z,5.26
2019-01-21T18:10:35.284Z,5.24
2019-01-21T18:13:04.359Z,5.19
2019-01-21T18:15:33.562Z,5.17
2019-01-21T18:18:02.707Z,5.14
2019-01-21T18:20:31.795Z,4.09
2019-01-21T18:23:00.920Z,5.12
2019-01-21T18:25:30.023Z,5.10
2019-01-21T18:27:59.103Z,5.10
2019-01-21T18:30:28.765Z,5.09
2019-01-21T18:32:57.886Z,5.09
2019-01-21T18:35:28.022Z,5.06
2019-01-21T18:37:57.237Z,5.05
2019-01-21T18:40:26.352Z,5.05
2019-01-21T18:42:55.477Z,5.02
2019-01-21T18:45:28.405Z,4.99
2019-01-21T18:48:06.312Z,4.95
2019-01-21T18:50:35.772Z,4.92
2019-01-21T18:53:05.089Z,4.88
2019-01-21T18:55:34.421Z,4.85
2019-01-21T18:58:03.770Z,4.81
2019-01-21T19:00:33.010Z,4.77
2019-01-21T19:03:03.646Z,4.76
2019-01-21T19:05:47.740Z,4.72
2019-01-21T19:08:23.362Z,4.71
2019-01-21T19:10:52.714Z,4.67
2019-01-21T19:13:22.111Z,4.62
2019-01-21T19:16:25.849Z,4.58
2019-01-21T19:19:05.464Z,4.55
2019-01-21T19:21:34.900Z,4.49
2019-01-21T19:24:04.272Z,4.45
2019-01-21T19:26:33.641Z,4.37
2019-01-21T19:29:03.279Z,4.37
2019-01-21T19:31:34.477Z,4.36
2019-01-21T19:34:03.674Z,4.33
2019-01-21T19:36:32.873Z,4.29
2019-01-21T19:39:02.156Z,4.26
2019-01-21T19:41:31.268Z,4.23
2019-01-21T19:44:00.299Z,4.21
2019-01-21T19:46:29.619Z,4.16
2019-01-21T19:49:01.108Z,4.14
2019-01-21T19:51:30.425Z,4.05
2019-01-21T19:53:59.672Z,4.05
2019-01-21T19:56:28.968Z,4.03
2019-01-21T19:58:58.115Z,4.03
2019-01-21T20:01:27.697Z,4.00
2019-01-21T20:03:57.220Z,3.88
2019-01-21T20:06:26.512Z,3.88
2019-01-21T20:08:55.584Z,3.86
2019-01-21T20:11:24.687Z,3.85
2019-01-21T20:13:53.739Z,3.78
2019-01-21T20:16:24.343Z,3.73
2019-01-21T20:18:53.528Z,3.71
2019-01-21T20:21:22.603Z,3.68
2019-01-21T20:23:51.798Z,3.65
2019-01-21T20:26:20.892Z,3.62
2019-01-21T20:28:50.050Z,3.58
2019-01-21T20:31:19.042Z,3.54
2019-01-21T20:33:52.017Z,3.48
2019-01-21T20:36:19.075Z,3.43
2019-01-21T20:38:48.158Z,3.41
2019-01-21T20:41:17.254Z,3.38
2019-01-21T20:43:46.414Z,3.34
2019-01-21T20:46:15.691Z,3.30
2019-01-21T20:48:44.773Z,3.32
2019-01-21T20:51:14.015Z,3.29
2019-01-21T20:53:43.301Z,3.27
2019-01-21T20:56:12.389Z,3.25
2019-01-21T20:58:41.667Z,3.24
2019-01-21T21:01:10.743Z,3.22
2019-01-21T21:03:39.857Z,3.18
2019-01-21T21:06:09.263Z,3.16
2019-01-21T21:08:38.372Z,3.13
2019-01-21T21:11:07.400Z,3.10
2019-01-21T21:13:36.462Z,3.07
2019-01-21T21:16:05.517Z,3.05
2019-01-21T21:18:34.583Z,3.02
2019-01-21T21:21:03.651Z,2.99
2019-01-21T21:23:32.728Z,2.98
2019-01-21T21:26:01.809Z,2.96
2019-01-21T21:28:31.290Z,2.95
2019-01-21T21:31:00.327Z,2.93
2019-01-21T21:33:29.438Z,2.89
2019-01-21T21:36:01.277Z,2.91
2019-01-21T21:38:30.383Z,2.89
2019-01-21T21:40:59.427Z,2.86
2019-01-21T21:43:28.517Z,2.87
2019-01-21T21:45:57.566Z,2.84
2019-01-21T21:48:31.725Z,2.82
2019-01-21T21:50:57.545Z,2.82
2019-01-21T21:53:26.629Z,2.82
2019-01-21T21:55:55.739Z,2.83
2019-01-21T21:58:24.939Z,2.82
2019-01-21T22:00:54.036Z,2.82
2019-01-21T22:03:23.122Z,2.83
2019-01-21T22:05:52.168Z,2.78
2019-01-21T22:08:21.449Z,2.74
2019-01-21T22:10:50.572Z,2.74
2019-01-21T22:13:19.735Z,2.72
2019-01-21T22:15:48.785Z,2.70
2019-01-21T22:18:17.829Z,2.60
2019-01-21T22:20:47.175Z,2.66
2019-01-21T22:23:16.242Z,2.59
2019-01-21T22:25:45.297Z,2.68
2019-01-21T22:28:14.322Z,2.69
2019-01-21T22:30:43.384Z,2.69
2019-01-21T22:33:12.890Z,2.63
2019-01-21T22:35:41.927Z,2.68
2019-01-21T22:38:10.966Z,2.66
2019-01-21T22:40:40.907Z,2.67
2019-01-21T22:43:10.372Z,2.62
2019-01-21T22:45:39.524Z,2.63
2019-01-21T22:48:08.660Z,2.61
2019-01-21T22:50:37.727Z,2.63
2019-01-21T22:53:06.809Z,2.62
2019-01-21T22:55:35.977Z,2.62
2019-01-21T22:58:05.335Z,2.64
2019-01-21T23:00:56.214Z,2.62
2019-01-21T23:03:26.460Z,2.58
2019-01-21T23:05:55.608Z,2.50
2019-01-21T23:08:24.866Z,2.46
2019-01-21T23:10:54.279Z,2.46
2019-01-21T23:13:24.626Z,2.45
2019-01-21T23:15:53.749Z,2.41
2019-01-21T23:18:23.009Z,2.41
2019-01-21T23:20:52.463Z,2.32
2019-01-21T23:23:21.601Z,2.32
2019-01-21T23:25:50.655Z,2.26
2019-01-21T23:28:19.779Z,2.20
2019-01-21T23:30:48.824Z,2.19
2019-01-21T23:33:17.904Z,2.19
2019-01-21T23:35:47.178Z,2.17
2019-01-21T23:38:16.208Z,2.17
2019-01-21T23:40:45.239Z,2.17
2019-01-21T23:43:14.348Z,2.17
2019-01-21T23:45:43.435Z,2.16
2019-01-21T23:48:12.564Z,2.13
2019-01-21T23:50:41.591Z,2.13
2019-01-21T23:53:10.691Z,2.13
2019-01-21T23:55:39.748Z,2.12
2019-01-21T23:58:08.868Z,2.13
